Terminal Aerodrome Forecast
Issued by NWS Oklahoma City, OK

Home | Current Version | Previous Version | Text Only | Print | Product List | Glossary On
Versions: 1 2 3 4 5 6 7 8 9 10 11 12 13 14 15 16 17
000
FTUS44 KOUN 180520
TAFOUN
TAF
KOUN 180520Z 1806/1906 VRB05KT P6SM OVC100
      TEMPO 1806/1810 5SM -SHRA OVC040
     FM181200 17007KT P6SM OVC025
     FM190100 16006KT 5SM BR OVC015=

USA.gov is the U.S. government's official web portal to all federal, state and local government web resources and services.